sensor_id;sensor_type;location;lat;lon;timestamp;P1;durP1;ratioP1;P2;durP2;ratioP2
43449;SDS011;29041;42.266;23.110;2024-01-10T00:01:50;3.15;;;1.75;;
43449;SDS011;29041;42.266;23.110;2024-01-10T00:04:38;3.92;;;2.67;;
43449;SDS011;29041;42.266;23.110;2024-01-10T00:07:25;1.70;;;0.50;;
43449;SDS011;29041;42.266;23.110;2024-01-10T00:10:13;2.97;;;0.75;;
43449;SDS011;29041;42.266;23.110;2024-01-10T00:13:00;2.08;;;1.63;;
43449;SDS011;29041;42.266;23.110;2024-01-10T00:15:47;1.85;;;1.15;;
43449;SDS011;29041;42.266;23.110;2024-01-10T00:18:35;1.65;;;1.17;;
43449;SDS011;29041;42.266;23.110;2024-01-10T00:21:23;0.73;;;0.60;;
43449;SDS011;29041;42.266;23.110;2024-01-10T00:24:10;0.55;;;0.55;;
43449;SDS011;29041;42.266;23.110;2024-01-10T00:26:58;1.80;;;1.10;;
43449;SDS011;29041;42.266;23.110;2024-01-10T00:29:46;3.58;;;2.13;;
43449;SDS011;29041;42.266;23.110;2024-01-10T00:32:33;1.25;;;1.15;;
43449;SDS011;29041;42.266;23.110;2024-01-10T00:35:20;3.33;;;1.15;;
43449;SDS011;29041;42.266;23.110;2024-01-10T00:38:09;0.60;;;0.50;;
43449;SDS011;29041;42.266;23.110;2024-01-10T00:40:56;6.40;;;1.23;;
43449;SDS011;29041;42.266;23.110;2024-01-10T00:43:46;1.23;;;1.13;;
43449;SDS011;29041;42.266;23.110;2024-01-10T00:46:33;1.30;;;0.80;;
43449;SDS011;29041;42.266;23.110;2024-01-10T00:49:20;0.40;;;0.40;;
43449;SDS011;29041;42.266;23.110;2024-01-10T00:52:07;4.95;;;1.85;;
43449;SDS011;29041;42.266;23.110;2024-01-10T00:54:56;3.85;;;1.98;;
43449;SDS011;29041;42.266;23.110;2024-01-10T00:57:43;2.05;;;1.35;;
43449;SDS011;29041;42.266;23.110;2024-01-10T01:00:31;1.27;;;1.13;;
43449;SDS011;29041;42.266;23.110;2024-01-10T01:03:18;3.50;;;1.17;;
43449;SDS011;29041;42.266;23.110;2024-01-10T01:06:05;2.28;;;0.85;;
43449;SDS011;29041;42.266;23.110;2024-01-10T01:08:53;1.42;;;0.57;;
43449;SDS011;29041;42.266;23.110;2024-01-10T01:11:41;0.95;;;0.77;;
43449;SDS011;29041;42.266;23.110;2024-01-10T01:14:28;2.03;;;1.85;;
43449;SDS011;29041;42.266;23.110;2024-01-10T01:17:15;5.57;;;1.55;;
43449;SDS011;29041;42.266;23.110;2024-01-10T01:20:03;24.55;;;1.67;;
43449;SDS011;29041;42.266;23.110;2024-01-10T01:22:50;1.08;;;0.98;;
43449;SDS011;29041;42.266;23.110;2024-01-10T01:25:38;3.35;;;1.55;;
43449;SDS011;29041;42.266;23.110;2024-01-10T01:28:26;2.33;;;1.15;;
43449;SDS011;29041;42.266;23.110;2024-01-10T01:31:14;2.00;;;1.10;;
43449;SDS011;29041;42.266;23.110;2024-01-10T01:34:01;1.80;;;1.33;;
43449;SDS011;29041;42.266;23.110;2024-01-10T01:36:48;14.98;;;7.93;;
43449;SDS011;29041;42.266;23.110;2024-01-10T01:39:37;6.07;;;2.72;;
43449;SDS011;29041;42.266;23.110;2024-01-10T01:42:24;2.83;;;1.63;;
43449;SDS011;29041;42.266;23.110;2024-01-10T01:45:13;1.35;;;0.68;;
43449;SDS011;29041;42.266;23.110;2024-01-10T01:48:00;1.85;;;0.85;;
43449;SDS011;29041;42.266;23.110;2024-01-10T01:50:48;1.17;;;0.82;;
43449;SDS011;29041;42.266;23.110;2024-01-10T01:53:37;1.40;;;1.30;;
43449;SDS011;29041;42.266;23.110;2024-01-10T01:56:26;2.35;;;1.65;;
43449;SDS011;29041;42.266;23.110;2024-01-10T01:59:15;2.15;;;0.80;;
43449;SDS011;29041;42.266;23.110;2024-01-10T02:02:04;3.42;;;2.35;;
43449;SDS011;29041;42.266;23.110;2024-01-10T02:04:52;0.98;;;0.98;;
43449;SDS011;29041;42.266;23.110;2024-01-10T02:07:40;0.52;;;0.52;;
43449;SDS011;29041;42.266;23.110;2024-01-10T02:10:27;4.70;;;1.38;;
43449;SDS011;29041;42.266;23.110;2024-01-10T02:13:14;3.95;;;1.73;;
43449;SDS011;29041;42.266;23.110;2024-01-10T02:16:03;3.28;;;1.23;;
43449;SDS011;29041;42.266;23.110;2024-01-10T02:18:52;2.53;;;0.38;;
43449;SDS011;29041;42.266;23.110;2024-01-10T02:21:39;1.52;;;1.27;;
43449;SDS011;29041;42.266;23.110;2024-01-10T02:24:26;0.98;;;0.90;;
43449;SDS011;29041;42.266;23.110;2024-01-10T02:27:15;1.70;;;1.10;;
43449;SDS011;29041;42.266;23.110;2024-01-10T02:30:02;2.50;;;1.13;;
43449;SDS011;29041;42.266;23.110;2024-01-10T02:32:50;1.05;;;0.90;;
43449;SDS011;29041;42.266;23.110;2024-01-10T02:35:37;2.45;;;1.10;;
43449;SDS011;29041;42.266;23.110;2024-01-10T02:38:24;0.70;;;0.68;;
43449;SDS011;29041;42.266;23.110;2024-01-10T02:41:12;4.93;;;2.05;;
43449;SDS011;29041;42.266;23.110;2024-01-10T02:44:01;4.18;;;1.30;;
43449;SDS011;29041;42.266;23.110;2024-01-10T02:46:48;2.20;;;1.50;;
43449;SDS011;29041;42.266;23.110;2024-01-10T02:49:35;1.40;;;1.05;;
43449;SDS011;29041;42.266;23.110;2024-01-10T02:52:22;3.10;;;0.90;;
43449;SDS011;29041;42.266;23.110;2024-01-10T02:55:09;0.80;;;0.77;;
43449;SDS011;29041;42.266;23.110;2024-01-10T02:57:56;1.67;;;0.80;;
43449;SDS011;29041;42.266;23.110;2024-01-10T03:00:45;1.50;;;1.35;;
43449;SDS011;29041;42.266;23.110;2024-01-10T03:03:32;2.03;;;1.83;;
43449;SDS011;29041;42.266;23.110;2024-01-10T03:06:19;1.45;;;0.90;;
43449;SDS011;29041;42.266;23.110;2024-01-10T03:09:06;2.05;;;1.13;;
43449;SDS011;29041;42.266;23.110;2024-01-10T03:11:53;2.75;;;1.10;;
43449;SDS011;29041;42.266;23.110;2024-01-10T03:14:40;0.75;;;0.57;;
43449;SDS011;29041;42.266;23.110;2024-01-10T03:17:29;0.70;;;0.70;;
43449;SDS011;29041;42.266;23.110;2024-01-10T03:20:19;1.30;;;0.88;;
43449;SDS011;29041;42.266;23.110;2024-01-10T03:23:06;0.80;;;0.65;;
43449;SDS011;29041;42.266;23.110;2024-01-10T03:25:53;1.95;;;1.25;;
43449;SDS011;29041;42.266;23.110;2024-01-10T03:28:40;3.58;;;1.35;;
43449;SDS011;29041;42.266;23.110;2024-01-10T03:31:27;1.08;;;0.45;;
43449;SDS011;29041;42.266;23.110;2024-01-10T03:34:17;0.52;;;0.52;;
43449;SDS011;29041;42.266;23.110;2024-01-10T03:37:04;1.63;;;0.82;;
43449;SDS011;29041;42.266;23.110;2024-01-10T03:39:51;1.08;;;0.82;;
43449;SDS011;29041;42.266;23.110;2024-01-10T03:42:38;1.77;;;1.65;;
43449;SDS011;29041;42.266;23.110;2024-01-10T03:45:25;6.68;;;4.25;;
43449;SDS011;29041;42.266;23.110;2024-01-10T03:48:13;1.77;;;1.13;;
43449;SDS011;29041;42.266;23.110;2024-01-10T03:51:02;4.53;;;1.33;;
43449;SDS011;29041;42.266;23.110;2024-01-10T03:53:50;4.95;;;1.75;;
43449;SDS011;29041;42.266;23.110;2024-01-10T03:56:37;1.90;;;1.48;;
43449;SDS011;29041;42.266;23.110;2024-01-10T03:59:24;11.38;;;6.22;;
43449;SDS011;29041;42.266;23.110;2024-01-10T04:02:11;36.28;;;9.00;;
43449;SDS011;29041;42.266;23.110;2024-01-10T04:04:58;2.97;;;1.75;;
43449;SDS011;29041;42.266;23.110;2024-01-10T04:07:46;5.15;;;1.83;;
43449;SDS011;29041;42.266;23.110;2024-01-10T04:10:34;3.13;;;2.22;;
43449;SDS011;29041;42.266;23.110;2024-01-10T04:13:21;6.57;;;2.60;;
43449;SDS011;29041;42.266;23.110;2024-01-10T04:16:08;2.60;;;1.35;;
43449;SDS011;29041;42.266;23.110;2024-01-10T04:18:55;0.55;;;0.55;;
43449;SDS011;29041;42.266;23.110;2024-01-10T04:21:42;0.82;;;0.82;;
43449;SDS011;29041;42.266;23.110;2024-01-10T04:24:31;2.00;;;1.35;;
43449;SDS011;29041;42.266;23.110;2024-01-10T04:27:18;3.30;;;1.58;;
43449;SDS011;29041;42.266;23.110;2024-01-10T04:30:05;4.25;;;2.40;;
43449;SDS011;29041;42.266;23.110;2024-01-10T04:32:53;2.78;;;1.52;;
43449;SDS011;29041;42.266;23.110;2024-01-10T04:35:41;1.52;;;0.93;;
43449;SDS011;29041;42.266;23.110;2024-01-10T04:38:28;3.47;;;1.40;;
43449;SDS011;29041;42.266;23.110;2024-01-10T04:41:16;1.70;;;1.00;;
43449;SDS011;29041;42.266;23.110;2024-01-10T04:44:03;3.42;;;1.23;;
43449;SDS011;29041;42.266;23.110;2024-01-10T04:46:50;3.40;;;1.08;;
43449;SDS011;29041;42.266;23.110;2024-01-10T04:49:38;1.15;;;0.73;;
43449;SDS011;29041;42.266;23.110;2024-01-10T04:52:25;0.30;;;0.30;;
43449;SDS011;29041;42.266;23.110;2024-01-10T04:55:12;3.00;;;1.83;;
43449;SDS011;29041;42.266;23.110;2024-01-10T04:58:00;2.72;;;0.70;;
43449;SDS011;29041;42.266;23.110;2024-01-10T05:00:48;2.63;;;1.52;;
43449;SDS011;29041;42.266;23.110;2024-01-10T05:03:35;0.73;;;0.65;;
43449;SDS011;29041;42.266;23.110;2024-01-10T05:06:22;1.63;;;0.68;;
43449;SDS011;29041;42.266;23.110;2024-01-10T05:09:10;0.63;;;0.63;;
43449;SDS011;29041;42.266;23.110;2024-01-10T05:11:57;2.65;;;1.23;;
43449;SDS011;29041;42.266;23.110;2024-01-10T05:14:46;4.10;;;1.25;;
43449;SDS011;29041;42.266;23.110;2024-01-10T05:17:33;90.70;;;27.23;;
43449;SDS011;29041;42.266;23.110;2024-01-10T05:20:25;12.38;;;4.15;;
43449;SDS011;29041;42.266;23.110;2024-01-10T05:23:12;2.60;;;1.70;;
43449;SDS011;29041;42.266;23.110;2024-01-10T05:25:59;5.75;;;1.85;;
43449;SDS011;29041;42.266;23.110;2024-01-10T05:28:47;3.17;;;0.95;;
43449;SDS011;29041;42.266;23.110;2024-01-10T05:31:35;1.77;;;1.33;;
43449;SDS011;29041;42.266;23.110;2024-01-10T05:34:22;2.78;;;0.73;;
43449;SDS011;29041;42.266;23.110;2024-01-10T05:37:09;1.55;;;1.13;;
43449;SDS011;29041;42.266;23.110;2024-01-10T05:39:56;6.93;;;4.72;;
43449;SDS011;29041;42.266;23.110;2024-01-10T05:42:44;0.82;;;0.80;;
43449;SDS011;29041;42.266;23.110;2024-01-10T05:45:31;2.80;;;1.20;;
43449;SDS011;29041;42.266;23.110;2024-01-10T05:48:19;2.55;;;1.40;;
43449;SDS011;29041;42.266;23.110;2024-01-10T05:51:06;3.67;;;2.15;;
43449;SDS011;29041;42.266;23.110;2024-01-10T05:53:53;3.17;;;1.55;;
43449;SDS011;29041;42.266;23.110;2024-01-10T05:56:40;3.92;;;1.10;;
43449;SDS011;29041;42.266;23.110;2024-01-10T05:59:28;2.05;;;1.55;;
43449;SDS011;29041;42.266;23.110;2024-01-10T06:02:16;4.05;;;1.58;;
43449;SDS011;29041;42.266;23.110;2024-01-10T06:05:05;2.30;;;1.05;;
43449;SDS011;29041;42.266;23.110;2024-01-10T06:07:54;3.03;;;1.20;;
43449;SDS011;29041;42.266;23.110;2024-01-10T06:10:41;0.77;;;0.75;;
43449;SDS011;29041;42.266;23.110;2024-01-10T06:13:28;1.20;;;0.93;;
43449;SDS011;29041;42.266;23.110;2024-01-10T06:16:15;1.33;;;1.23;;
43449;SDS011;29041;42.266;23.110;2024-01-10T06:19:03;2.47;;;1.85;;
43449;SDS011;29041;42.266;23.110;2024-01-10T06:21:51;0.17;;;0.17;;
43449;SDS011;29041;42.266;23.110;2024-01-10T06:24:38;0.73;;;0.63;;
43449;SDS011;29041;42.266;23.110;2024-01-10T06:27:26;0.60;;;0.43;;
43449;SDS011;29041;42.266;23.110;2024-01-10T06:30:13;1.85;;;0.50;;
43449;SDS011;29041;42.266;23.110;2024-01-10T06:33:01;0.98;;;0.88;;
43449;SDS011;29041;42.266;23.110;2024-01-10T06:35:48;2.78;;;0.70;;
43449;SDS011;29041;42.266;23.110;2024-01-10T06:38:37;5.78;;;1.50;;
43449;SDS011;29041;42.266;23.110;2024-01-10T06:41:25;3.65;;;1.80;;
43449;SDS011;29041;42.266;23.110;2024-01-10T06:44:12;2.83;;;1.42;;
43449;SDS011;29041;42.266;23.110;2024-01-10T06:47:00;3.78;;;1.55;;
43449;SDS011;29041;42.266;23.110;2024-01-10T06:49:47;2.15;;;0.40;;
43449;SDS011;29041;42.266;23.110;2024-01-10T06:52:37;8.05;;;4.10;;
43449;SDS011;29041;42.266;23.110;2024-01-10T06:55:26;1.98;;;1.70;;
43449;SDS011;29041;42.266;23.110;2024-01-10T06:58:14;2.80;;;1.65;;
43449;SDS011;29041;42.266;23.110;2024-01-10T07:01:01;0.35;;;0.35;;
43449;SDS011;29041;42.266;23.110;2024-01-10T07:03:51;7.38;;;2.22;;
43449;SDS011;29041;42.266;23.110;2024-01-10T07:06:40;2.92;;;1.38;;
43449;SDS011;29041;42.266;23.110;2024-01-10T07:09:27;2.90;;;1.83;;
43449;SDS011;29041;42.266;23.110;2024-01-10T07:12:15;4.32;;;3.17;;
43449;SDS011;29041;42.266;23.110;2024-01-10T07:15:03;2.05;;;1.40;;
43449;SDS011;29041;42.266;23.110;2024-01-10T07:17:51;1.55;;;0.45;;
43449;SDS011;29041;42.266;23.110;2024-01-10T07:20:43;3.72;;;1.95;;
43449;SDS011;29041;42.266;23.110;2024-01-10T07:23:31;1.05;;;0.93;;
43449;SDS011;29041;42.266;23.110;2024-01-10T07:26:19;0.90;;;0.73;;
43449;SDS011;29041;42.266;23.110;2024-01-10T07:29:08;0.30;;;0.20;;
43449;SDS011;29041;42.266;23.110;2024-01-10T07:32:00;1.02;;;0.93;;
43449;SDS011;29041;42.266;23.110;2024-01-10T07:34:47;2.10;;;1.17;;
43449;SDS011;29041;42.266;23.110;2024-01-10T07:37:34;0.63;;;0.63;;
43449;SDS011;29041;42.266;23.110;2024-01-10T07:40:21;0.77;;;0.77;;
43449;SDS011;29041;42.266;23.110;2024-01-10T07:43:09;3.45;;;1.75;;
43449;SDS011;29041;42.266;23.110;2024-01-10T07:45:58;0.30;;;0.20;;
43449;SDS011;29041;42.266;23.110;2024-01-10T07:48:46;0.47;;;0.47;;
43449;SDS011;29041;42.266;23.110;2024-01-10T07:51:33;2.10;;;1.17;;
43449;SDS011;29041;42.266;23.110;2024-01-10T07:54:21;2.17;;;1.98;;
43449;SDS011;29041;42.266;23.110;2024-01-10T07:57:08;0.82;;;0.82;;
43449;SDS011;29041;42.266;23.110;2024-01-10T07:59:55;0.60;;;0.40;;
43449;SDS011;29041;42.266;23.110;2024-01-10T08:02:44;0.57;;;0.57;;
43449;SDS011;29041;42.266;23.110;2024-01-10T08:05:31;4.80;;;1.63;;
43449;SDS011;29041;42.266;23.110;2024-01-10T08:08:19;3.13;;;1.63;;
43449;SDS011;29041;42.266;23.110;2024-01-10T08:11:06;2.08;;;1.55;;
43449;SDS011;29041;42.266;23.110;2024-01-10T08:13:53;0.20;;;0.20;;
43449;SDS011;29041;42.266;23.110;2024-01-10T08:16:40;1.67;;;0.98;;
43449;SDS011;29041;42.266;23.110;2024-01-10T08:19:28;5.22;;;1.50;;
43449;SDS011;29041;42.266;23.110;2024-01-10T08:22:15;2.33;;;1.23;;
43449;SDS011;29041;42.266;23.110;2024-01-10T08:25:03;5.25;;;3.38;;
43449;SDS011;29041;42.266;23.110;2024-01-10T08:27:51;1.35;;;1.08;;
43449;SDS011;29041;42.266;23.110;2024-01-10T08:30:39;6.00;;;1.73;;
43449;SDS011;29041;42.266;23.110;2024-01-10T08:33:26;2.72;;;0.98;;
43449;SDS011;29041;42.266;23.110;2024-01-10T08:36:17;1.92;;;1.40;;
43449;SDS011;29041;42.266;23.110;2024-01-10T08:39:04;4.15;;;1.38;;
43449;SDS011;29041;42.266;23.110;2024-01-10T08:41:51;0.73;;;0.65;;
43449;SDS011;29041;42.266;23.110;2024-01-10T08:44:39;1.35;;;0.98;;
43449;SDS011;29041;42.266;23.110;2024-01-10T08:47:26;2.13;;;1.08;;
43449;SDS011;29041;42.266;23.110;2024-01-10T08:50:15;1.60;;;0.50;;
43449;SDS011;29041;42.266;23.110;2024-01-10T08:53:04;2.30;;;1.25;;
43449;SDS011;29041;42.266;23.110;2024-01-10T08:55:51;1.17;;;0.95;;
43449;SDS011;29041;42.266;23.110;2024-01-10T08:58:39;1.17;;;0.77;;
43449;SDS011;29041;42.266;23.110;2024-01-10T09:01:26;1.40;;;0.85;;
43449;SDS011;29041;42.266;23.110;2024-01-10T09:04:13;4.18;;;1.50;;
43449;SDS011;29041;42.266;23.110;2024-01-10T09:07:00;1.77;;;0.63;;
43449;SDS011;29041;42.266;23.110;2024-01-10T09:09:49;0.60;;;0.60;;
43449;SDS011;29041;42.266;23.110;2024-01-10T09:12:36;3.17;;;1.10;;
43449;SDS011;29041;42.266;23.110;2024-01-10T09:15:23;0.40;;;0.40;;
43449;SDS011;29041;42.266;23.110;2024-01-10T09:18:10;1.77;;;0.95;;
43449;SDS011;29041;42.266;23.110;2024-01-10T09:20:57;1.00;;;0.90;;
43449;SDS011;29041;42.266;23.110;2024-01-10T09:23:44;1.52;;;0.82;;
43449;SDS011;29041;42.266;23.110;2024-01-10T09:26:34;1.25;;;0.68;;
43449;SDS011;29041;42.266;23.110;2024-01-10T09:29:21;5.07;;;1.65;;
43449;SDS011;29041;42.266;23.110;2024-01-10T09:32:09;1.75;;;0.90;;
43449;SDS011;29041;42.266;23.110;2024-01-10T09:34:56;2.22;;;1.17;;
43449;SDS011;29041;42.266;23.110;2024-01-10T09:37:43;2.22;;;0.50;;
43449;SDS011;29041;42.266;23.110;2024-01-10T09:40:31;2.10;;;1.00;;
43449;SDS011;29041;42.266;23.110;2024-01-10T09:43:20;1.10;;;0.68;;
43449;SDS011;29041;42.266;23.110;2024-01-10T09:46:07;2.03;;;1.15;;
43449;SDS011;29041;42.266;23.110;2024-01-10T09:48:55;1.70;;;1.38;;
43449;SDS011;29041;42.266;23.110;2024-01-10T09:51:42;2.28;;;1.23;;
43449;SDS011;29041;42.266;23.110;2024-01-10T09:54:34;1.48;;;1.05;;
43449;SDS011;29041;42.266;23.110;2024-01-10T09:57:25;6.53;;;0.68;;
43449;SDS011;29041;42.266;23.110;2024-01-10T10:00:15;1.65;;;0.60;;
43449;SDS011;29041;42.266;23.110;2024-01-10T10:03:03;1.48;;;0.88;;
43449;SDS011;29041;42.266;23.110;2024-01-10T10:05:53;1.58;;;0.82;;
43449;SDS011;29041;42.266;23.110;2024-01-10T10:08:40;2.25;;;1.33;;
43449;SDS011;29041;42.266;23.110;2024-01-10T10:11:27;2.58;;;1.20;;
43449;SDS011;29041;42.266;23.110;2024-01-10T10:14:15;2.08;;;1.30;;
43449;SDS011;29041;42.266;23.110;2024-01-10T10:17:14;2.53;;;0.68;;
43449;SDS011;29041;42.266;23.110;2024-01-10T10:20:02;2.00;;;1.80;;
43449;SDS011;29041;42.266;23.110;2024-01-10T10:22:57;3.55;;;1.52;;
43449;SDS011;29041;42.266;23.110;2024-01-10T10:25:46;0.90;;;0.80;;
43449;SDS011;29041;42.266;23.110;2024-01-10T10:28:33;2.53;;;1.63;;
43449;SDS011;29041;42.266;23.110;2024-01-10T10:31:21;3.00;;;1.35;;
43449;SDS011;29041;42.266;23.110;2024-01-10T10:34:10;5.88;;;1.60;;
43449;SDS011;29041;42.266;23.110;2024-01-10T10:36:58;0.70;;;0.55;;
43449;SDS011;29041;42.266;23.110;2024-01-10T10:39:45;3.03;;;1.10;;
43449;SDS011;29041;42.266;23.110;2024-01-10T10:42:32;2.10;;;0.95;;
43449;SDS011;29041;42.266;23.110;2024-01-10T10:45:21;4.18;;;1.50;;
43449;SDS011;29041;42.266;23.110;2024-01-10T10:48:11;3.20;;;1.55;;
43449;SDS011;29041;42.266;23.110;2024-01-10T10:53:55;2.45;;;1.52;;
43449;SDS011;29041;42.266;23.110;2024-01-10T10:56:45;3.20;;;2.03;;
43449;SDS011;29041;42.266;23.110;2024-01-10T10:59:32;3.05;;;1.90;;
43449;SDS011;29041;42.266;23.110;2024-01-10T11:02:23;2.92;;;1.40;;
43449;SDS011;29041;42.266;23.110;2024-01-10T11:05:10;2.47;;;1.90;;
43449;SDS011;29041;42.266;23.110;2024-01-10T11:07:59;5.20;;;2.08;;
43449;SDS011;29041;42.266;23.110;2024-01-10T11:10:50;2.15;;;1.38;;
43449;SDS011;29041;42.266;23.110;2024-01-10T11:13:48;2.55;;;1.30;;
43449;SDS011;29041;42.266;23.110;2024-01-10T11:16:54;4.50;;;1.48;;
43449;SDS011;29041;42.266;23.110;2024-01-10T11:20:24;5.25;;;1.95;;
43449;SDS011;29041;42.266;23.110;2024-01-10T11:23:42;2.05;;;1.58;;
43449;SDS011;29041;42.266;23.110;2024-01-10T11:26:31;3.00;;;1.25;;
43449;SDS011;29041;42.266;23.110;2024-01-10T11:29:18;3.38;;;1.80;;
43449;SDS011;29041;42.266;23.110;2024-01-10T11:32:06;4.78;;;1.05;;
43449;SDS011;29041;42.266;23.110;2024-01-10T11:34:57;2.45;;;1.77;;
43449;SDS011;29041;42.266;23.110;2024-01-10T11:37:45;2.00;;;1.50;;
43449;SDS011;29041;42.266;23.110;2024-01-10T11:40:48;3.92;;;3.30;;
43449;SDS011;29041;42.266;23.110;2024-01-10T11:43:36;4.28;;;2.25;;
43449;SDS011;29041;42.266;23.110;2024-01-10T11:46:23;2.72;;;1.95;;
43449;SDS011;29041;42.266;23.110;2024-01-10T11:49:10;19.90;;;9.45;;
43449;SDS011;29041;42.266;23.110;2024-01-10T11:52:00;7.97;;;4.28;;
43449;SDS011;29041;42.266;23.110;2024-01-10T11:54:47;6.32;;;3.65;;
43449;SDS011;29041;42.266;23.110;2024-01-10T11:57:38;4.22;;;2.08;;
43449;SDS011;29041;42.266;23.110;2024-01-10T12:00:25;5.43;;;2.90;;
43449;SDS011;29041;42.266;23.110;2024-01-10T12:03:13;3.75;;;1.73;;
43449;SDS011;29041;42.266;23.110;2024-01-10T12:06:01;4.95;;;2.00;;
43449;SDS011;29041;42.266;23.110;2024-01-10T12:08:48;10.38;;;5.40;;
43449;SDS011;29041;42.266;23.110;2024-01-10T12:11:35;28.15;;;14.85;;
43449;SDS011;29041;42.266;23.110;2024-01-10T12:14:26;6.53;;;2.35;;
43449;SDS011;29041;42.266;23.110;2024-01-10T12:17:14;4.15;;;2.08;;
43449;SDS011;29041;42.266;23.110;2024-01-10T12:20:01;4.63;;;2.17;;
43449;SDS011;29041;42.266;23.110;2024-01-10T12:22:49;2.33;;;1.67;;
43449;SDS011;29041;42.266;23.110;2024-01-10T12:25:36;25.77;;;9.32;;
43449;SDS011;29041;42.266;23.110;2024-01-10T12:28:23;4.22;;;2.30;;
43449;SDS011;29041;42.266;23.110;2024-01-10T12:31:12;2.20;;;1.30;;
43449;SDS011;29041;42.266;23.110;2024-01-10T12:33:59;4.00;;;1.65;;
43449;SDS011;29041;42.266;23.110;2024-01-10T12:36:46;10.70;;;3.97;;
43449;SDS011;29041;42.266;23.110;2024-01-10T12:39:34;8.82;;;3.38;;
43449;SDS011;29041;42.266;23.110;2024-01-10T12:42:23;3.53;;;2.25;;
43449;SDS011;29041;42.266;23.110;2024-01-10T12:45:20;5.57;;;2.28;;
43449;SDS011;29041;42.266;23.110;2024-01-10T12:48:08;5.82;;;2.53;;
43449;SDS011;29041;42.266;23.110;2024-01-10T12:51:02;9.27;;;3.05;;
43449;SDS011;29041;42.266;23.110;2024-01-10T12:53:52;13.23;;;4.10;;
43449;SDS011;29041;42.266;23.110;2024-01-10T12:56:39;6.65;;;2.97;;
43449;SDS011;29041;42.266;23.110;2024-01-10T12:59:26;3.45;;;2.00;;
43449;SDS011;29041;42.266;23.110;2024-01-10T13:02:14;7.40;;;4.32;;
43449;SDS011;29041;42.266;23.110;2024-01-10T13:05:02;5.25;;;3.25;;
43449;SDS011;29041;42.266;23.110;2024-01-10T13:07:50;3.28;;;1.40;;
43449;SDS011;29041;42.266;23.110;2024-01-10T13:10:37;3.97;;;1.98;;
43449;SDS011;29041;42.266;23.110;2024-01-10T13:13:24;6.68;;;1.95;;
43449;SDS011;29041;42.266;23.110;2024-01-10T13:16:11;3.55;;;1.83;;
43449;SDS011;29041;42.266;23.110;2024-01-10T13:18:58;3.70;;;1.25;;
43449;SDS011;29041;42.266;23.110;2024-01-10T13:21:47;3.78;;;1.55;;
43449;SDS011;29041;42.266;23.110;2024-01-10T13:24:34;3.15;;;1.95;;
43449;SDS011;29041;42.266;23.110;2024-01-10T13:27:21;8.60;;;4.43;;
43449;SDS011;29041;42.266;23.110;2024-01-10T13:30:08;2.67;;;1.35;;
43449;SDS011;29041;42.266;23.110;2024-01-10T13:32:57;5.00;;;1.65;;
43449;SDS011;29041;42.266;23.110;2024-01-10T13:35:45;5.20;;;1.48;;
43449;SDS011;29041;42.266;23.110;2024-01-10T13:38:33;2.63;;;1.33;;
43449;SDS011;29041;42.266;23.110;2024-01-10T13:41:20;2.60;;;0.93;;
43449;SDS011;29041;42.266;23.110;2024-01-10T13:44:08;2.53;;;0.88;;
43449;SDS011;29041;42.266;23.110;2024-01-10T13:46:55;1.92;;;0.98;;
43449;SDS011;29041;42.266;23.110;2024-01-10T13:49:42;3.90;;;2.22;;
43449;SDS011;29041;42.266;23.110;2024-01-10T13:52:29;4.80;;;2.55;;
43449;SDS011;29041;42.266;23.110;2024-01-10T13:55:18;4.13;;;2.42;;
43449;SDS011;29041;42.266;23.110;2024-01-10T13:58:05;6.80;;;2.92;;
43449;SDS011;29041;42.266;23.110;2024-01-10T14:00:53;11.30;;;4.15;;
43449;SDS011;29041;42.266;23.110;2024-01-10T14:03:40;2.17;;;1.25;;
43449;SDS011;29041;42.266;23.110;2024-01-10T14:06:27;16.08;;;7.22;;
43449;SDS011;29041;42.266;23.110;2024-01-10T14:09:15;4.60;;;2.50;;
43449;SDS011;29041;42.266;23.110;2024-01-10T14:12:05;6.50;;;3.33;;
43449;SDS011;29041;42.266;23.110;2024-01-10T14:14:52;3.70;;;2.30;;
43449;SDS011;29041;42.266;23.110;2024-01-10T14:17:39;9.95;;;4.32;;
43449;SDS011;29041;42.266;23.110;2024-01-10T14:20:27;6.35;;;2.95;;
43449;SDS011;29041;42.266;23.110;2024-01-10T14:23:14;15.98;;;6.82;;
43449;SDS011;29041;42.266;23.110;2024-01-10T14:26:03;10.65;;;5.20;;
43449;SDS011;29041;42.266;23.110;2024-01-10T14:28:52;9.27;;;3.72;;
43449;SDS011;29041;42.266;23.110;2024-01-10T14:31:41;9.30;;;3.65;;
43449;SDS011;29041;42.266;23.110;2024-01-10T14:34:28;3.50;;;2.47;;
43449;SDS011;29041;42.266;23.110;2024-01-10T14:37:15;4.10;;;2.50;;
43449;SDS011;29041;42.266;23.110;2024-01-10T14:40:03;8.48;;;3.83;;
43449;SDS011;29041;42.266;23.110;2024-01-10T14:42:51;9.25;;;2.13;;
43449;SDS011;29041;42.266;23.110;2024-01-10T14:45:40;18.55;;;7.65;;
43449;SDS011;29041;42.266;23.110;2024-01-10T14:48:27;3.75;;;2.22;;
43449;SDS011;29041;42.266;23.110;2024-01-10T14:51:14;5.95;;;2.53;;
43449;SDS011;29041;42.266;23.110;2024-01-10T14:54:02;12.55;;;4.82;;
43449;SDS011;29041;42.266;23.110;2024-01-10T14:56:51;5.20;;;2.13;;
43449;SDS011;29041;42.266;23.110;2024-01-10T14:59:39;20.55;;;5.47;;
43449;SDS011;29041;42.266;23.110;2024-01-10T15:02:28;4.55;;;1.38;;
43449;SDS011;29041;42.266;23.110;2024-01-10T15:05:15;10.18;;;4.82;;
43449;SDS011;29041;42.266;23.110;2024-01-10T15:08:03;7.95;;;2.53;;
43449;SDS011;29041;42.266;23.110;2024-01-10T15:10:53;6.90;;;3.53;;
43449;SDS011;29041;42.266;23.110;2024-01-10T15:13:40;6.68;;;3.33;;
43449;SDS011;29041;42.266;23.110;2024-01-10T15:16:28;7.30;;;2.97;;
43449;SDS011;29041;42.266;23.110;2024-01-10T15:19:16;9.60;;;4.35;;
43449;SDS011;29041;42.266;23.110;2024-01-10T15:22:04;10.35;;;4.65;;
43449;SDS011;29041;42.266;23.110;2024-01-10T15:24:51;14.07;;;6.13;;
43449;SDS011;29041;42.266;23.110;2024-01-10T15:27:38;48.25;;;12.38;;
43449;SDS011;29041;42.266;23.110;2024-01-10T15:30:25;16.20;;;6.63;;
43449;SDS011;29041;42.266;23.110;2024-01-10T15:33:12;43.03;;;14.10;;
43449;SDS011;29041;42.266;23.110;2024-01-10T15:36:01;41.05;;;12.15;;
43449;SDS011;29041;42.266;23.110;2024-01-10T15:38:48;32.50;;;10.13;;
43449;SDS011;29041;42.266;23.110;2024-01-10T15:41:35;41.08;;;13.00;;
43449;SDS011;29041;42.266;23.110;2024-01-10T15:44:23;49.38;;;13.70;;
43449;SDS011;29041;42.266;23.110;2024-01-10T15:47:10;38.55;;;11.20;;
43449;SDS011;29041;42.266;23.110;2024-01-10T15:49:57;10.90;;;4.55;;
43449;SDS011;29041;42.266;23.110;2024-01-10T15:52:45;16.77;;;7.47;;
43449;SDS011;29041;42.266;23.110;2024-01-10T15:55:34;25.80;;;8.65;;
43449;SDS011;29041;42.266;23.110;2024-01-10T15:58:22;24.25;;;7.82;;
43449;SDS011;29041;42.266;23.110;2024-01-10T16:01:09;16.67;;;8.10;;
43449;SDS011;29041;42.266;23.110;2024-01-10T16:03:56;19.33;;;9.13;;
43449;SDS011;29041;42.266;23.110;2024-01-10T16:06:43;24.73;;;9.98;;
43449;SDS011;29041;42.266;23.110;2024-01-10T16:09:31;24.92;;;11.82;;
43449;SDS011;29041;42.266;23.110;2024-01-10T16:12:19;33.20;;;13.80;;
43449;SDS011;29041;42.266;23.110;2024-01-10T16:15:06;20.40;;;12.82;;
43449;SDS011;29041;42.266;23.110;2024-01-10T16:17:54;24.88;;;11.90;;
43449;SDS011;29041;42.266;23.110;2024-01-10T16:20:41;30.10;;;13.35;;
43449;SDS011;29041;42.266;23.110;2024-01-10T16:23:28;22.10;;;11.27;;
43449;SDS011;29041;42.266;23.110;2024-01-10T16:26:17;13.00;;;7.13;;
43449;SDS011;29041;42.266;23.110;2024-01-10T16:29:04;18.60;;;8.88;;
43449;SDS011;29041;42.266;23.110;2024-01-10T16:31:52;31.55;;;15.43;;
43449;SDS011;29041;42.266;23.110;2024-01-10T16:34:39;17.80;;;10.43;;
43449;SDS011;29041;42.266;23.110;2024-01-10T16:37:26;12.50;;;6.55;;